sensor_id;sensor_type;location;lat;lon;timestamp;temperature;humidity
12386;DHT22;6257;57.634;18.310;2023-01-15T00:00:21;4.50;99.90
12386;DHT22;6257;57.634;18.310;2023-01-15T00:02:47;4.50;99.90
12386;DHT22;6257;57.634;18.310;2023-01-15T00:05:16;4.40;99.90
12386;DHT22;6257;57.634;18.310;2023-01-15T00:07:43;4.50;99.90
12386;DHT22;6257;57.634;18.310;2023-01-15T00:10:10;4.50;99.90
12386;DHT22;6257;57.634;18.310;2023-01-15T00:12:37;4.50;99.90
12386;DHT22;6257;57.634;18.310;2023-01-15T00:15:05;4.50;99.90
12386;DHT22;6257;57.634;18.310;2023-01-15T00:17:33;4.50;99.90
12386;DHT22;6257;57.634;18.310;2023-01-15T00:20:00;4.50;99.90
12386;DHT22;6257;57.634;18.310;2023-01-15T00:22:29;4.50;99.90
12386;DHT22;6257;57.634;18.310;2023-01-15T00:24:57;4.50;99.90
12386;DHT22;6257;57.634;18.310;2023-01-15T00:27:41;4.50;99.90
12386;DHT22;6257;57.634;18.310;2023-01-15T00:30:13;4.50;99.90
12386;DHT22;6257;57.634;18.310;2023-01-15T00:32:41;4.50;99.90
12386;DHT22;6257;57.634;18.310;2023-01-15T00:35:11;4.50;99.90
12386;DHT22;6257;57.634;18.310;2023-01-15T00:37:41;4.50;99.90
12386;DHT22;6257;57.634;18.310;2023-01-15T00:40:10;4.50;99.90
12386;DHT22;6257;57.634;18.310;2023-01-15T00:42:37;4.50;99.90
12386;DHT22;6257;57.634;18.310;2023-01-15T00:45:06;4.50;99.90
12386;DHT22;6257;57.634;18.310;2023-01-15T00:47:34;4.40;99.90
12386;DHT22;6257;57.634;18.310;2023-01-15T00:50:02;4.40;99.90
12386;DHT22;6257;57.634;18.310;2023-01-15T00:52:29;4.40;99.90
12386;DHT22;6257;57.634;18.310;2023-01-15T00:54:58;4.40;99.90
12386;DHT22;6257;57.634;18.310;2023-01-15T00:57:25;4.40;99.90
12386;DHT22;6257;57.634;18.310;2023-01-15T00:59:52;4.40;99.90
12386;DHT22;6257;57.634;18.310;2023-01-15T01:02:19;4.40;99.90
12386;DHT22;6257;57.634;18.310;2023-01-15T01:04:46;4.40;99.90
12386;DHT22;6257;57.634;18.310;2023-01-15T01:07:13;4.40;99.90
12386;DHT22;6257;57.634;18.310;2023-01-15T01:09:41;4.40;99.90
12386;DHT22;6257;57.634;18.310;2023-01-15T01:12:10;4.40;99.90
12386;DHT22;6257;57.634;18.310;2023-01-15T01:14:37;4.40;99.90
12386;DHT22;6257;57.634;18.310;2023-01-15T01:17:04;4.40;99.90
12386;DHT22;6257;57.634;18.310;2023-01-15T01:19:31;4.50;99.90
12386;DHT22;6257;57.634;18.310;2023-01-15T01:21:58;4.50;99.90
12386;DHT22;6257;57.634;18.310;2023-01-15T01:24:25;4.50;99.90
12386;DHT22;6257;57.634;18.310;2023-01-15T01:26:52;4.50;99.90
12386;DHT22;6257;57.634;18.310;2023-01-15T01:29:22;4.50;99.90
12386;DHT22;6257;57.634;18.310;2023-01-15T01:31:50;4.50;99.90
12386;DHT22;6257;57.634;18.310;2023-01-15T01:34:17;4.50;99.90
12386;DHT22;6257;57.634;18.310;2023-01-15T01:36:44;4.60;99.90
12386;DHT22;6257;57.634;18.310;2023-01-15T01:39:14;4.60;99.90
12386;DHT22;6257;57.634;18.310;2023-01-15T01:41:41;4.60;99.90
12386;DHT22;6257;57.634;18.310;2023-01-15T01:47:12;4.60;99.90
12386;DHT22;6257;57.634;18.310;2023-01-15T01:49:44;4.60;99.90
12386;DHT22;6257;57.634;18.310;2023-01-15T01:52:14;4.70;99.90
12386;DHT22;6257;57.634;18.310;2023-01-15T01:54:45;4.70;99.90
12386;DHT22;6257;57.634;18.310;2023-01-15T01:57:13;4.70;99.90
12386;DHT22;6257;57.634;18.310;2023-01-15T01:59:42;4.70;99.90
12386;DHT22;6257;57.634;18.310;2023-01-15T02:02:11;4.70;99.90
12386;DHT22;6257;57.634;18.310;2023-01-15T02:04:39;4.70;99.90
12386;DHT22;6257;57.634;18.310;2023-01-15T02:07:06;4.70;99.90
12386;DHT22;6257;57.634;18.310;2023-01-15T02:09:34;4.70;99.90
12386;DHT22;6257;57.634;18.310;2023-01-15T02:12:08;4.80;99.90
12386;DHT22;6257;57.634;18.310;2023-01-15T02:14:42;4.80;99.90
12386;DHT22;6257;57.634;18.310;2023-01-15T02:17:18;4.80;99.90
12386;DHT22;6257;57.634;18.310;2023-01-15T02:19:52;4.80;99.90
12386;DHT22;6257;57.634;18.310;2023-01-15T02:22:31;4.80;99.90
12386;DHT22;6257;57.634;18.310;2023-01-15T02:25:07;4.90;99.90
12386;DHT22;6257;57.634;18.310;2023-01-15T02:27:41;4.90;99.90
12386;DHT22;6257;57.634;18.310;2023-01-15T02:30:12;4.90;99.90
12386;DHT22;6257;57.634;18.310;2023-01-15T02:32:44;4.90;99.90
12386;DHT22;6257;57.634;18.310;2023-01-15T02:35:15;5.00;99.90
12386;DHT22;6257;57.634;18.310;2023-01-15T02:37:47;5.00;99.90
12386;DHT22;6257;57.634;18.310;2023-01-15T02:40:18;5.00;99.90
12386;DHT22;6257;57.634;18.310;2023-01-15T02:42:48;5.00;99.90
12386;DHT22;6257;57.634;18.310;2023-01-15T02:45:19;5.00;99.90
12386;DHT22;6257;57.634;18.310;2023-01-15T02:47:50;5.10;99.90
12386;DHT22;6257;57.634;18.310;2023-01-15T02:50:22;5.10;99.90
12386;DHT22;6257;57.634;18.310;2023-01-15T02:52:56;5.10;99.90
12386;DHT22;6257;57.634;18.310;2023-01-15T02:55:27;5.10;99.90
12386;DHT22;6257;57.634;18.310;2023-01-15T02:58:04;5.10;99.90
12386;DHT22;6257;57.634;18.310;2023-01-15T03:00:37;5.10;99.90
12386;DHT22;6257;57.634;18.310;2023-01-15T03:03:09;5.20;99.90
12386;DHT22;6257;57.634;18.310;2023-01-15T03:05:40;5.20;99.90
12386;DHT22;6257;57.634;18.310;2023-01-15T03:08:10;5.20;99.90
12386;DHT22;6257;57.634;18.310;2023-01-15T03:10:41;5.20;99.90
12386;DHT22;6257;57.634;18.310;2023-01-15T03:13:16;5.20;99.90
12386;DHT22;6257;57.634;18.310;2023-01-15T03:15:50;5.30;99.90
12386;DHT22;6257;57.634;18.310;2023-01-15T03:18:41;5.30;99.90
12386;DHT22;6257;57.634;18.310;2023-01-15T03:21:12;5.30;99.90
12386;DHT22;6257;57.634;18.310;2023-01-15T03:23:46;5.30;99.90
12386;DHT22;6257;57.634;18.310;2023-01-15T03:26:15;5.30;99.90
12386;DHT22;6257;57.634;18.310;2023-01-15T03:28:44;5.30;99.90
12386;DHT22;6257;57.634;18.310;2023-01-15T03:31:13;5.40;99.90
12386;DHT22;6257;57.634;18.310;2023-01-15T03:33:40;5.40;99.90
12386;DHT22;6257;57.634;18.310;2023-01-15T03:36:08;5.40;99.90
12386;DHT22;6257;57.634;18.310;2023-01-15T03:38:37;5.40;99.90
12386;DHT22;6257;57.634;18.310;2023-01-15T03:41:14;5.40;99.90
12386;DHT22;6257;57.634;18.310;2023-01-15T03:43:53;5.40;99.90
12386;DHT22;6257;57.634;18.310;2023-01-15T03:46:35;5.50;99.90
12386;DHT22;6257;57.634;18.310;2023-01-15T03:49:10;5.50;99.90
12386;DHT22;6257;57.634;18.310;2023-01-15T03:51:47;5.50;99.90
12386;DHT22;6257;57.634;18.310;2023-01-15T03:54:21;5.50;99.90
12386;DHT22;6257;57.634;18.310;2023-01-15T03:56:53;5.50;99.90
12386;DHT22;6257;57.634;18.310;2023-01-15T03:59:29;5.50;99.90
12386;DHT22;6257;57.634;18.310;2023-01-15T04:02:00;5.50;99.90
12386;DHT22;6257;57.634;18.310;2023-01-15T04:04:29;5.60;99.90
12386;DHT22;6257;57.634;18.310;2023-01-15T04:06:58;5.60;99.90
12386;DHT22;6257;57.634;18.310;2023-01-15T04:09:25;5.60;99.90
12386;DHT22;6257;57.634;18.310;2023-01-15T04:11:53;5.60;99.90
12386;DHT22;6257;57.634;18.310;2023-01-15T04:14:24;5.70;99.90
12386;DHT22;6257;57.634;18.310;2023-01-15T04:16:52;5.70;99.90
12386;DHT22;6257;57.634;18.310;2023-01-15T04:19:20;5.70;99.90
12386;DHT22;6257;57.634;18.310;2023-01-15T04:21:47;5.70;99.90
12386;DHT22;6257;57.634;18.310;2023-01-15T04:24:14;5.70;99.90
12386;DHT22;6257;57.634;18.310;2023-01-15T04:26:41;5.70;99.90
12386;DHT22;6257;57.634;18.310;2023-01-15T04:29:08;5.80;99.90
12386;DHT22;6257;57.634;18.310;2023-01-15T04:31:35;5.80;99.90
12386;DHT22;6257;57.634;18.310;2023-01-15T04:34:04;5.80;99.90
12386;DHT22;6257;57.634;18.310;2023-01-15T04:36:31;5.80;99.90
12386;DHT22;6257;57.634;18.310;2023-01-15T04:39:00;5.90;99.90
12386;DHT22;6257;57.634;18.310;2023-01-15T04:41:27;5.80;99.90
12386;DHT22;6257;57.634;18.310;2023-01-15T04:44:11;5.90;99.90
12386;DHT22;6257;57.634;18.310;2023-01-15T04:46:41;5.90;99.90
12386;DHT22;6257;57.634;18.310;2023-01-15T04:49:11;5.90;99.90
12386;DHT22;6257;57.634;18.310;2023-01-15T04:51:39;5.90;99.90
12386;DHT22;6257;57.634;18.310;2023-01-15T04:54:07;5.90;99.90
12386;DHT22;6257;57.634;18.310;2023-01-15T04:56:38;6.00;99.90
12386;DHT22;6257;57.634;18.310;2023-01-15T04:59:05;5.90;99.90
12386;DHT22;6257;57.634;18.310;2023-01-15T05:01:32;6.00;99.90
12386;DHT22;6257;57.634;18.310;2023-01-15T05:04:00;5.90;99.90
12386;DHT22;6257;57.634;18.310;2023-01-15T05:06:29;6.00;99.90
12386;DHT22;6257;57.634;18.310;2023-01-15T05:08:57;6.00;99.90
12386;DHT22;6257;57.634;18.310;2023-01-15T05:11:24;6.00;99.90
12386;DHT22;6257;57.634;18.310;2023-01-15T05:13:51;6.00;99.90
12386;DHT22;6257;57.634;18.310;2023-01-15T05:16:20;6.10;99.90
12386;DHT22;6257;57.634;18.310;2023-01-15T05:18:48;6.00;99.90
12386;DHT22;6257;57.634;18.310;2023-01-15T05:21:16;6.10;99.90
12386;DHT22;6257;57.634;18.310;2023-01-15T05:23:47;6.10;99.90
12386;DHT22;6257;57.634;18.310;2023-01-15T05:26:14;6.10;99.90
12386;DHT22;6257;57.634;18.310;2023-01-15T05:28:41;6.10;99.90
12386;DHT22;6257;57.634;18.310;2023-01-15T05:31:10;6.10;99.90
12386;DHT22;6257;57.634;18.310;2023-01-15T05:33:38;6.10;99.90
12386;DHT22;6257;57.634;18.310;2023-01-15T05:36:08;6.10;99.90
12386;DHT22;6257;57.634;18.310;2023-01-15T05:38:36;6.10;99.90
12386;DHT22;6257;57.634;18.310;2023-01-15T05:41:05;6.10;99.90
12386;DHT22;6257;57.634;18.310;2023-01-15T05:43:53;6.10;99.90
12386;DHT22;6257;57.634;18.310;2023-01-15T05:46:21;6.10;99.90
12386;DHT22;6257;57.634;18.310;2023-01-15T05:48:48;6.10;99.90
12386;DHT22;6257;57.634;18.310;2023-01-15T05:51:15;6.00;99.90
12386;DHT22;6257;57.634;18.310;2023-01-15T05:53:43;6.00;99.90
12386;DHT22;6257;57.634;18.310;2023-01-15T05:56:11;5.90;99.90
12386;DHT22;6257;57.634;18.310;2023-01-15T05:58:38;5.90;99.90
12386;DHT22;6257;57.634;18.310;2023-01-15T06:01:06;5.90;99.90
12386;DHT22;6257;57.634;18.310;2023-01-15T06:03:34;5.80;99.90
12386;DHT22;6257;57.634;18.310;2023-01-15T06:06:02;5.60;99.90
12386;DHT22;6257;57.634;18.310;2023-01-15T06:08:29;5.40;99.90
12386;DHT22;6257;57.634;18.310;2023-01-15T06:10:56;5.30;99.90
12386;DHT22;6257;57.634;18.310;2023-01-15T06:13:24;5.20;99.90
12386;DHT22;6257;57.634;18.310;2023-01-15T06:15:51;5.10;99.90
12386;DHT22;6257;57.634;18.310;2023-01-15T06:18:18;5.10;99.90
12386;DHT22;6257;57.634;18.310;2023-01-15T06:20:45;5.10;99.90
12386;DHT22;6257;57.634;18.310;2023-01-15T06:23:12;5.00;99.90
12386;DHT22;6257;57.634;18.310;2023-01-15T06:25:39;5.00;99.90
12386;DHT22;6257;57.634;18.310;2023-01-15T06:28:07;5.00;99.90
12386;DHT22;6257;57.634;18.310;2023-01-15T06:30:37;4.90;99.90
12386;DHT22;6257;57.634;18.310;2023-01-15T06:33:05;4.90;99.90
12386;DHT22;6257;57.634;18.310;2023-01-15T06:35:32;4.90;99.90
12386;DHT22;6257;57.634;18.310;2023-01-15T06:37:59;4.90;99.90
12386;DHT22;6257;57.634;18.310;2023-01-15T06:40:26;4.90;99.90
12386;DHT22;6257;57.634;18.310;2023-01-15T06:42:56;4.90;99.90
12386;DHT22;6257;57.634;18.310;2023-01-15T06:45:42;4.80;99.90
12386;DHT22;6257;57.634;18.310;2023-01-15T06:48:27;4.80;99.90
12386;DHT22;6257;57.634;18.310;2023-01-15T06:50:54;4.90;99.90
12386;DHT22;6257;57.634;18.310;2023-01-15T06:53:21;4.80;99.90
12386;DHT22;6257;57.634;18.310;2023-01-15T06:55:48;4.90;99.90
12386;DHT22;6257;57.634;18.310;2023-01-15T06:58:15;4.80;99.90
12386;DHT22;6257;57.634;18.310;2023-01-15T07:00:44;4.80;99.90
12386;DHT22;6257;57.634;18.310;2023-01-15T07:03:18;4.80;99.90
12386;DHT22;6257;57.634;18.310;2023-01-15T07:05:45;4.80;99.90
12386;DHT22;6257;57.634;18.310;2023-01-15T07:08:12;4.80;99.90
12386;DHT22;6257;57.634;18.310;2023-01-15T07:10:39;4.80;99.90
12386;DHT22;6257;57.634;18.310;2023-01-15T07:13:08;4.80;99.90
12386;DHT22;6257;57.634;18.310;2023-01-15T07:15:38;4.80;99.90
12386;DHT22;6257;57.634;18.310;2023-01-15T07:18:06;4.80;99.90
12386;DHT22;6257;57.634;18.310;2023-01-15T07:20:33;4.80;99.90
12386;DHT22;6257;57.634;18.310;2023-01-15T07:23:00;4.80;99.90
12386;DHT22;6257;57.634;18.310;2023-01-15T07:25:27;4.80;99.90
12386;DHT22;6257;57.634;18.310;2023-01-15T07:27:54;4.80;99.90
12386;DHT22;6257;57.634;18.310;2023-01-15T07:30:21;4.80;99.90
12386;DHT22;6257;57.634;18.310;2023-01-15T07:32:49;4.80;99.90
12386;DHT22;6257;57.634;18.310;2023-01-15T07:35:17;4.80;99.90
12386;DHT22;6257;57.634;18.310;2023-01-15T07:37:44;4.80;99.90
12386;DHT22;6257;57.634;18.310;2023-01-15T07:40:16;4.80;99.90
12386;DHT22;6257;57.634;18.310;2023-01-15T07:42:43;4.80;99.90
12386;DHT22;6257;57.634;18.310;2023-01-15T07:45:28;4.80;99.90
12386;DHT22;6257;57.634;18.310;2023-01-15T07:48:27;4.80;99.90
12386;DHT22;6257;57.634;18.310;2023-01-15T07:51:13;4.80;99.90
12386;DHT22;6257;57.634;18.310;2023-01-15T07:53:41;4.80;99.90
12386;DHT22;6257;57.634;18.310;2023-01-15T07:56:08;4.80;99.90
12386;DHT22;6257;57.634;18.310;2023-01-15T07:58:36;4.70;99.90
12386;DHT22;6257;57.634;18.310;2023-01-15T08:01:03;4.70;99.90
12386;DHT22;6257;57.634;18.310;2023-01-15T08:03:30;4.80;99.90
12386;DHT22;6257;57.634;18.310;2023-01-15T08:05:57;4.80;99.90
12386;DHT22;6257;57.634;18.310;2023-01-15T08:08:25;4.80;99.90
12386;DHT22;6257;57.634;18.310;2023-01-15T08:10:53;4.80;99.90
12386;DHT22;6257;57.634;18.310;2023-01-15T08:13:37;4.80;99.90
12386;DHT22;6257;57.634;18.310;2023-01-15T08:16:21;4.80;99.90
12386;DHT22;6257;57.634;18.310;2023-01-15T08:18:48;4.90;99.90
12386;DHT22;6257;57.634;18.310;2023-01-15T08:21:15;4.90;99.90
12386;DHT22;6257;57.634;18.310;2023-01-15T08:23:44;4.90;99.90
12386;DHT22;6257;57.634;18.310;2023-01-15T08:26:12;4.90;99.90
12386;DHT22;6257;57.634;18.310;2023-01-15T08:28:39;4.90;99.90
12386;DHT22;6257;57.634;18.310;2023-01-15T08:31:06;4.90;99.90
12386;DHT22;6257;57.634;18.310;2023-01-15T08:33:34;5.00;99.90
12386;DHT22;6257;57.634;18.310;2023-01-15T08:36:01;5.00;99.90
12386;DHT22;6257;57.634;18.310;2023-01-15T08:38:28;5.00;99.90
12386;DHT22;6257;57.634;18.310;2023-01-15T08:40:57;5.00;99.90
12386;DHT22;6257;57.634;18.310;2023-01-15T08:43:24;5.00;99.90
12386;DHT22;6257;57.634;18.310;2023-01-15T08:45:51;5.00;99.90
12386;DHT22;6257;57.634;18.310;2023-01-15T08:48:19;5.00;99.90
12386;DHT22;6257;57.634;18.310;2023-01-15T08:50:46;5.00;99.90
12386;DHT22;6257;57.634;18.310;2023-01-15T08:53:13;5.00;99.90
12386;DHT22;6257;57.634;18.310;2023-01-15T08:55:40;5.00;99.90
12386;DHT22;6257;57.634;18.310;2023-01-15T08:58:08;5.10;99.90
12386;DHT22;6257;57.634;18.310;2023-01-15T09:00:35;5.10;99.90
12386;DHT22;6257;57.634;18.310;2023-01-15T09:03:03;5.10;99.90
12386;DHT22;6257;57.634;18.310;2023-01-15T09:05:31;5.10;99.90
12386;DHT22;6257;57.634;18.310;2023-01-15T09:07:58;5.20;99.90
12386;DHT22;6257;57.634;18.310;2023-01-15T09:10:25;5.10;99.90
12386;DHT22;6257;57.634;18.310;2023-01-15T09:15:21;5.10;99.90
12386;DHT22;6257;57.634;18.310;2023-01-15T09:17:49;5.20;99.90
12386;DHT22;6257;57.634;18.310;2023-01-15T09:20:16;5.20;99.90
12386;DHT22;6257;57.634;18.310;2023-01-15T09:22:43;6.10;99.90
12386;DHT22;6257;57.634;18.310;2023-01-15T09:25:10;5.20;99.90
12386;DHT22;6257;57.634;18.310;2023-01-15T09:27:37;5.20;99.90
12386;DHT22;6257;57.634;18.310;2023-01-15T09:30:05;5.20;99.90
12386;DHT22;6257;57.634;18.310;2023-01-15T09:32:34;5.20;99.90
12386;DHT22;6257;57.634;18.310;2023-01-15T09:35:01;5.20;99.90
12386;DHT22;6257;57.634;18.310;2023-01-15T09:37:28;5.20;99.90
12386;DHT22;6257;57.634;18.310;2023-01-15T09:39:55;5.20;99.90
12386;DHT22;6257;57.634;18.310;2023-01-15T09:42:31;5.20;99.90
12386;DHT22;6257;57.634;18.310;2023-01-15T09:45:12;5.20;99.90
12386;DHT22;6257;57.634;18.310;2023-01-15T09:47:52;5.20;99.90
12386;DHT22;6257;57.634;18.310;2023-01-15T09:50:29;5.20;99.90
12386;DHT22;6257;57.634;18.310;2023-01-15T09:53:28;5.20;99.90
12386;DHT22;6257;57.634;18.310;2023-01-15T09:56:00;5.20;99.90
12386;DHT22;6257;57.634;18.310;2023-01-15T09:58:32;5.20;99.90
12386;DHT22;6257;57.634;18.310;2023-01-15T10:01:00;5.20;99.90
12386;DHT22;6257;57.634;18.310;2023-01-15T10:03:33;5.10;99.90
12386;DHT22;6257;57.634;18.310;2023-01-15T10:06:11;5.10;99.90
12386;DHT22;6257;57.634;18.310;2023-01-15T10:08:43;5.10;99.90
12386;DHT22;6257;57.634;18.310;2023-01-15T10:11:27;5.10;99.90
12386;DHT22;6257;57.634;18.310;2023-01-15T10:14:20;5.20;99.90
12386;DHT22;6257;57.634;18.310;2023-01-15T10:16:52;5.20;99.90
12386;DHT22;6257;57.634;18.310;2023-01-15T10:19:21;5.20;99.90
12386;DHT22;6257;57.634;18.310;2023-01-15T10:21:55;5.20;99.90
12386;DHT22;6257;57.634;18.310;2023-01-15T10:24:29;5.20;99.90
12386;DHT22;6257;57.634;18.310;2023-01-15T10:27:06;5.20;99.90
12386;DHT22;6257;57.634;18.310;2023-01-15T10:29:41;5.20;99.90
12386;DHT22;6257;57.634;18.310;2023-01-15T10:32:21;5.20;99.90
12386;DHT22;6257;57.634;18.310;2023-01-15T10:35:21;5.30;99.90
12386;DHT22;6257;57.634;18.310;2023-01-15T10:37:53;5.30;99.90
12386;DHT22;6257;57.634;18.310;2023-01-15T10:40:38;5.20;99.90
12386;DHT22;6257;57.634;18.310;2023-01-15T10:43:14;5.20;99.90
12386;DHT22;6257;57.634;18.310;2023-01-15T10:45:48;5.10;99.90
12386;DHT22;6257;57.634;18.310;2023-01-15T10:48:24;5.10;99.90
12386;DHT22;6257;57.634;18.310;2023-01-15T10:50:56;5.10;99.90
12386;DHT22;6257;57.634;18.310;2023-01-15T10:53:31;5.10;99.90
12386;DHT22;6257;57.634;18.310;2023-01-15T10:56:06;5.10;99.90
12386;DHT22;6257;57.634;18.310;2023-01-15T10:58:40;5.10;99.90
12386;DHT22;6257;57.634;18.310;2023-01-15T11:01:14;5.10;99.90
12386;DHT22;6257;57.634;18.310;2023-01-15T11:03:44;5.10;99.90
12386;DHT22;6257;57.634;18.310;2023-01-15T11:06:14;5.20;99.90
12386;DHT22;6257;57.634;18.310;2023-01-15T11:08:44;5.30;99.90
12386;DHT22;6257;57.634;18.310;2023-01-15T11:11:18;5.30;99.90
12386;DHT22;6257;57.634;18.310;2023-01-15T11:13:52;5.30;99.90
12386;DHT22;6257;57.634;18.310;2023-01-15T11:16:37;5.30;99.90
12386;DHT22;6257;57.634;18.310;2023-01-15T11:19:26;5.30;99.90
12386;DHT22;6257;57.634;18.310;2023-01-15T11:22:07;5.30;99.90
12386;DHT22;6257;57.634;18.310;2023-01-15T11:24:37;5.30;99.90
12386;DHT22;6257;57.634;18.310;2023-01-15T11:27:05;5.40;99.90
12386;DHT22;6257;57.634;18.310;2023-01-15T11:29:35;5.40;99.90
12386;DHT22;6257;57.634;18.310;2023-01-15T11:32:03;5.40;99.90
12386;DHT22;6257;57.634;18.310;2023-01-15T11:34:51;5.50;99.90
12386;DHT22;6257;57.634;18.310;2023-01-15T11:37:20;5.50;99.90
12386;DHT22;6257;57.634;18.310;2023-01-15T11:39:54;5.40;99.90
12386;DHT22;6257;57.634;18.310;2023-01-15T11:42:21;5.40;99.90
12386;DHT22;6257;57.634;18.310;2023-01-15T11:45:16;5.40;99.90
12386;DHT22;6257;57.634;18.310;2023-01-15T11:48:00;5.40;99.90
12386;DHT22;6257;57.634;18.310;2023-01-15T11:50:54;5.40;99.90
12386;DHT22;6257;57.634;18.310;2023-01-15T11:53:27;5.40;99.90
12386;DHT22;6257;57.634;18.310;2023-01-15T11:55:58;5.40;99.90
12386;DHT22;6257;57.634;18.310;2023-01-15T11:58:33;5.30;99.90
12386;DHT22;6257;57.634;18.310;2023-01-15T12:01:05;5.30;99.90
12386;DHT22;6257;57.634;18.310;2023-01-15T12:03:35;5.30;99.90
12386;DHT22;6257;57.634;18.310;2023-01-15T12:06:05;5.30;99.90
12386;DHT22;6257;57.634;18.310;2023-01-15T12:08:46;5.30;99.90
12386;DHT22;6257;57.634;18.310;2023-01-15T12:11:40;5.30;99.90
12386;DHT22;6257;57.634;18.310;2023-01-15T12:17:30;5.30;99.90
12386;DHT22;6257;57.634;18.310;2023-01-15T12:20:06;5.30;99.90
12386;DHT22;6257;57.634;18.310;2023-01-15T12:22:53;5.30;99.90
12386;DHT22;6257;57.634;18.310;2023-01-15T12:25:32;5.30;99.90
12386;DHT22;6257;57.634;18.310;2023-01-15T12:28:05;5.30;99.90
12386;DHT22;6257;57.634;18.310;2023-01-15T12:30:40;5.20;99.90
12386;DHT22;6257;57.634;18.310;2023-01-15T12:33:18;5.30;99.90
12386;DHT22;6257;57.634;18.310;2023-01-15T12:35:52;5.20;99.90
12386;DHT22;6257;57.634;18.310;2023-01-15T12:38:33;5.20;99.90
12386;DHT22;6257;57.634;18.310;2023-01-15T12:41:09;5.10;99.90
12386;DHT22;6257;57.634;18.310;2023-01-15T12:43:37;5.00;99.90
12386;DHT22;6257;57.634;18.310;2023-01-15T12:46:24;5.00;99.90
12386;DHT22;6257;57.634;18.310;2023-01-15T12:49:00;4.90;99.90
12386;DHT22;6257;57.634;18.310;2023-01-15T12:51:36;4.90;99.90
12386;DHT22;6257;57.634;18.310;2023-01-15T12:54:10;4.90;99.90
12386;DHT22;6257;57.634;18.310;2023-01-15T12:56:49;4.90;99.90
12386;DHT22;6257;57.634;18.310;2023-01-15T12:59:23;4.90;99.90
12386;DHT22;6257;57.634;18.310;2023-01-15T13:01:55;4.90;99.90
12386;DHT22;6257;57.634;18.310;2023-01-15T13:04:31;5.00;99.90
12386;DHT22;6257;57.634;18.310;2023-01-15T13:07:03;5.00;99.90
12386;DHT22;6257;57.634;18.310;2023-01-15T13:09:37;5.00;99.90
12386;DHT22;6257;57.634;18.310;2023-01-15T13:12:11;5.00;99.90
12386;DHT22;6257;57.634;18.310;2023-01-15T13:14:39;6.00;99.90
12386;DHT22;6257;57.634;18.310;2023-01-15T13:17:12;5.10;99.90
12386;DHT22;6257;57.634;18.310;2023-01-15T13:19:49;5.10;99.90
12386;DHT22;6257;57.634;18.310;2023-01-15T13:22:23;5.00;99.90
12386;DHT22;6257;57.634;18.310;2023-01-15T13:25:21;4.90;99.90
12386;DHT22;6257;57.634;18.310;2023-01-15T13:28:11;4.70;99.90
12386;DHT22;6257;57.634;18.310;2023-01-15T13:30:51;4.60;99.90
12386;DHT22;6257;57.634;18.310;2023-01-15T13:33:27;4.50;99.90
12386;DHT22;6257;57.634;18.310;2023-01-15T13:36:02;4.40;99.90
12386;DHT22;6257;57.634;18.310;2023-01-15T13:38:38;4.40;99.90
12386;DHT22;6257;57.634;18.310;2023-01-15T13:41:06;4.40;99.90
12386;DHT22;6257;57.634;18.310;2023-01-15T13:43:37;4.50;99.90
12386;DHT22;6257;57.634;18.310;2023-01-15T13:46:08;4.60;99.90
12386;DHT22;6257;57.634;18.310;2023-01-15T13:48:41;4.60;99.90
12386;DHT22;6257;57.634;18.310;2023-01-15T13:51:24;4.60;99.90
12386;DHT22;6257;57.634;18.310;2023-01-15T13:53:53;4.50;99.90
12386;DHT22;6257;57.634;18.310;2023-01-15T13:56:27;4.40;99.90
12386;DHT22;6257;57.634;18.310;2023-01-15T13:58:57;4.40;99.90
12386;DHT22;6257;57.634;18.310;2023-01-15T14:01:30;4.30;99.90
12386;DHT22;6257;57.634;18.310;2023-01-15T14:04:04;4.30;99.90
12386;DHT22;6257;57.634;18.310;2023-01-15T14:06:37;4.30;99.90
12386;DHT22;6257;57.634;18.310;2023-01-15T14:09:04;4.30;99.90
12386;DHT22;6257;57.634;18.310;2023-01-15T14:11:35;4.10;99.90
12386;DHT22;6257;57.634;18.310;2023-01-15T14:14:34;4.10;99.90
12386;DHT22;6257;57.634;18.310;2023-01-15T14:17:21;4.00;99.90
12386;DHT22;6257;57.634;18.310;2023-01-15T14:20:09;3.90;99.90
12386;DHT22;6257;57.634;18.310;2023-01-15T14:22:54;3.90;99.90
12386;DHT22;6257;57.634;18.310;2023-01-15T14:25:37;3.80;99.90
12386;DHT22;6257;57.634;18.310;2023-01-15T14:28:21;3.90;99.90
12386;DHT22;6257;57.634;18.310;2023-01-15T14:31:09;3.80;99.90
12386;DHT22;6257;57.634;18.310;2023-01-15T14:33:54;3.90;99.90
12386;DHT22;6257;57.634;18.310;2023-01-15T14:36:26;3.90;99.90
12386;DHT22;6257;57.634;18.310;2023-01-15T14:38:55;3.90;99.90
12386;DHT22;6257;57.634;18.310;2023-01-15T14:41:26;3.80;99.90
12386;DHT22;6257;57.634;18.310;2023-01-15T14:43:54;3.90;99.90
12386;DHT22;6257;57.634;18.310;2023-01-15T14:46:26;3.80;99.90
12386;DHT22;6257;57.634;18.310;2023-01-15T14:48:54;3.90;99.90
12386;DHT22;6257;57.634;18.310;2023-01-15T14:51:24;3.80;99.90
12386;DHT22;6257;57.634;18.310;2023-01-15T14:53:55;3.80;99.90
12386;DHT22;6257;57.634;18.310;2023-01-15T14:56:26;3.90;99.90
12386;DHT22;6257;57.634;18.310;2023-01-15T14:58:58;3.90;99.90
12386;DHT22;6257;57.634;18.310;2023-01-15T15:01:42;3.90;99.90
12386;DHT22;6257;57.634;18.310;2023-01-15T15:04:14;4.00;99.90
12386;DHT22;6257;57.634;18.310;2023-01-15T15:06:47;4.10;99.90
12386;DHT22;6257;57.634;18.310;2023-01-15T15:09:26;4.10;99.90
12386;DHT22;6257;57.634;18.310;2023-01-15T15:11:58;4.10;99.90
12386;DHT22;6257;57.634;18.310;2023-01-15T15:14:52;4.20;99.90
12386;DHT22;6257;57.634;18.310;2023-01-15T15:17:30;4.20;99.90
12386;DHT22;6257;57.634;18.310;2023-01-15T15:20:16;4.20;99.90
12386;DHT22;6257;57.634;18.310;2023-01-15T15:22:45;4.30;99.90
12386;DHT22;6257;57.634;18.310;2023-01-15T15:25:20;4.20;99.90
12386;DHT22;6257;57.634;18.310;2023-01-15T15:27:48;4.20;99.90
12386;DHT22;6257;57.634;18.310;2023-01-15T15:30:15;4.20;99.90
12386;DHT22;6257;57.634;18.310;2023-01-15T15:32:46;4.20;99.90
12386;DHT22;6257;57.634;18.310;2023-01-15T15:35:23;4.20;99.90
12386;DHT22;6257;57.634;18.310;2023-01-15T15:37:51;4.20;99.90
12386;DHT22;6257;57.634;18.310;2023-01-15T15:40:19;4.20;99.90
12386;DHT22;6257;57.634;18.310;2023-01-15T15:42:50;4.20;99.90
12386;DHT22;6257;57.634;18.310;2023-01-15T15:45:36;4.20;99.90
12386;DHT22;6257;57.634;18.310;2023-01-15T15:48:29;4.20;99.90
12386;DHT22;6257;57.634;18.310;2023-01-15T15:51:26;4.10;99.90
12386;DHT22;6257;57.634;18.310;2023-01-15T15:54:11;4.10;99.90
12386;DHT22;6257;57.634;18.310;2023-01-15T15:56:44;4.10;99.90
12386;DHT22;6257;57.634;18.310;2023-01-15T15:59:30;4.20;99.90
12386;DHT22;6257;57.634;18.310;2023-01-15T16:02:08;4.20;99.90
12386;DHT22;6257;57.634;18.310;2023-01-15T16:04:45;4.10;99.90
12386;DHT22;6257;57.634;18.310;2023-01-15T16:07:13;4.10;99.90
12386;DHT22;6257;57.634;18.310;2023-01-15T16:09:47;4.00;99.90
12386;DHT22;6257;57.634;18.310;2023-01-15T16:12:16;4.00;99.90
12386;DHT22;6257;57.634;18.310;2023-01-15T16:14:43;4.00;99.90
12386;DHT22;6257;57.634;18.310;2023-01-15T16:17:11;4.00;99.90
12386;DHT22;6257;57.634;18.310;2023-01-15T16:19:38;4.00;99.90
12386;DHT22;6257;57.634;18.310;2023-01-15T16:22:09;4.10;99.90
12386;DHT22;6257;57.634;18.310;2023-01-15T16:24:39;4.10;99.90